createdAt,value
2019-06-07T00:00:48.490Z,97.18
2019-06-07T00:01:46.685Z,96.61
2019-06-07T00:02:46.227Z,96.8
2019-06-07T00:03:44.278Z,96.7
2019-06-07T00:04:44.330Z,97.18
2019-06-07T00:05:44.649Z,97.18
2019-06-07T00:06:47.284Z,96.7
2019-06-07T00:07:47.769Z,96.51
2019-06-07T00:08:53.053Z,96.42
2019-06-07T00:13:02.190Z,95.56
2019-06-07T00:14:06.188Z,95.84
2019-06-07T00:15:32.133Z,95.07
2019-06-07T00:18:29.201Z,95.27
2019-06-07T00:19:25.039Z,95.61
2019-06-07T00:20:23.215Z,96.08
2019-06-07T00:21:11.569Z,96.47
2019-06-07T00:22:32.750Z,97.13
2019-06-07T00:23:49.381Z,97.04
2019-06-07T00:24:31.338Z,97.23
2019-06-07T00:25:14.790Z,98.28
2019-06-07T00:25:53.287Z,97.99
2019-06-07T00:26:33.968Z,97.71
2019-06-07T00:27:18.167Z,98.09
2019-06-07T00:28:40.359Z,99.43
2019-06-07T00:29:22.931Z,99.57
2019-06-07T00:34:47.438Z,99.99
2019-06-07T00:37:23.115Z,99.99
2019-06-07T00:38:11.848Z,99.99
2019-06-07T00:39:03.492Z,99.99
2019-06-07T00:41:08.339Z,99.99
2019-06-07T00:41:58.167Z,99.99
2019-06-07T00:42:47.455Z,99.99
2019-06-07T00:46:43.087Z,99.95
2019-06-07T00:53:14.376Z,99.99
2019-06-07T00:58:27.445Z,99.99
2019-06-07T01:02:31.544Z,99.99
2019-06-07T01:03:36.855Z,99.99
2019-06-07T01:04:47.843Z,99.99
2019-06-07T01:05:55.959Z,99.99
2019-06-07T01:06:56.983Z,99.99
2019-06-07T01:10:52.783Z,99.99
2019-06-07T01:20:40.351Z,99.99
2019-06-07T01:21:41.575Z,99.99
2019-06-07T01:22:41.751Z,99.99
2019-06-07T01:24:09.309Z,99.99
2019-06-07T01:24:46.819Z,99.99
2019-06-07T01:26:05.044Z,99.99
2019-06-07T01:28:10.228Z,99.99
2019-06-07T01:29:01.267Z,99.99
2019-06-07T01:32:51.791Z,99.99
2019-06-07T01:33:50.608Z,99.99
2019-06-07T01:34:33.603Z,99.99
2019-06-07T01:35:26.852Z,99.99
2019-06-07T01:36:18.176Z,99.99
2019-06-07T01:37:07.710Z,99.99
2019-06-07T01:38:00.689Z,99.99
2019-06-07T01:38:55.850Z,99.99
2019-06-07T01:39:42.337Z,99.99
2019-06-07T01:40:38.558Z,99.99
2019-06-07T01:44:30.993Z,99.99
2019-06-07T01:46:53.286Z,99.99
2019-06-07T01:49:04.787Z,99.99
2019-06-07T01:49:54.262Z,99.99
2019-06-07T01:50:48.062Z,99.99
2019-06-07T01:52:57.904Z,99.99
2019-06-07T01:53:45.909Z,99.99
2019-06-07T01:54:58.231Z,99.99
2019-06-07T01:55:26.641Z,99.99
2019-06-07T01:56:18.479Z,99.99
2019-06-07T01:58:43.271Z,99.99
2019-06-07T02:01:08.105Z,99.99
2019-06-07T02:01:48.467Z,99.99
2019-06-07T02:02:31.280Z,99.99
2019-06-07T02:03:09.454Z,99.99
2019-06-07T02:03:49.948Z,99.99
2019-06-07T02:04:33.002Z,99.99
2019-06-07T02:05:10.855Z,99.99
2019-06-07T02:05:51.347Z,99.99
2019-06-07T02:06:32.237Z,99.99
2019-06-07T02:07:12.293Z,99.99
2019-06-07T02:07:52.765Z,99.99
2019-06-07T02:08:34.145Z,99.99
2019-06-07T02:09:13.733Z,99.99
2019-06-07T02:09:54.203Z,99.99
2019-06-07T02:10:34.720Z,99.99
2019-06-07T02:11:15.420Z,99.99
2019-06-07T02:12:25.435Z,99.99
2019-06-07T02:12:51.291Z,99.99
2019-06-07T02:13:31.803Z,99.99
2019-06-07T02:14:12.436Z,99.95
2019-06-07T02:14:52.865Z,99.99
2019-06-07T02:15:36.525Z,99.99
2019-06-07T02:16:13.873Z,99.85
2019-06-07T02:16:54.396Z,99.99
2019-06-07T02:17:34.911Z,99.48
2019-06-07T02:18:16.354Z,99.09
2019-06-07T02:19:01.844Z,99.38
2019-06-07T02:19:37.371Z,99.28
2019-06-07T02:20:17.823Z,99.38
2019-06-07T02:20:58.408Z,99.95
2019-06-07T02:21:38.855Z,99.99
2019-06-07T02:22:21.363Z,99.85
2019-06-07T02:23:40.283Z,99.99
2019-06-07T02:24:22.139Z,99.99
2019-06-07T02:26:22.885Z,99.99
2019-06-07T02:27:02.657Z,99.99
2019-06-07T02:27:43.118Z,99.99
2019-06-07T02:28:36.375Z,99.99
2019-06-07T02:29:04.137Z,99.99
2019-06-07T02:29:44.609Z,99.99
2019-06-07T02:30:40.022Z,99.99
2019-06-07T02:31:05.586Z,99.99
2019-06-07T02:31:46.134Z,99.99
2019-06-07T02:32:29.649Z,99.99
2019-06-07T02:33:07.048Z,99.99
2019-06-07T02:33:47.512Z,99.99
2019-06-07T02:34:31.530Z,99.99
2019-06-07T02:35:08.482Z,99.99
2019-06-07T02:35:48.959Z,99.99
2019-06-07T02:36:32.796Z,99.99
2019-06-07T02:37:09.945Z,99.99
2019-06-07T02:37:50.436Z,99.99
2019-06-07T02:38:32.392Z,99.99
2019-06-07T02:39:11.726Z,99.99
2019-06-07T02:39:53.042Z,99.99
2019-06-07T02:40:37.098Z,99.99
2019-06-07T02:41:14.173Z,99.99
2019-06-07T02:41:54.836Z,99.99
2019-06-07T02:42:40.136Z,99.99
2019-06-07T02:43:17.195Z,99.99
2019-06-07T02:43:59.993Z,99.99
2019-06-07T02:44:40.833Z,99.99
2019-06-07T02:45:24.129Z,99.99
2019-06-07T02:46:23.796Z,99.99
2019-06-07T02:46:47.146Z,99.99
2019-06-07T02:47:28.603Z,99.99
2019-06-07T02:48:07.785Z,99.99
2019-06-07T02:48:50.892Z,99.99
2019-06-07T02:49:40.457Z,99.99
2019-06-07T02:54:50.392Z,99.99
2019-06-07T02:56:33.734Z,99.99
2019-06-07T02:56:57.154Z,99.99
2019-06-07T02:59:54.228Z,99.48
2019-06-07T03:03:57.401Z,99.99
2019-06-07T03:04:56.824Z,99.99
2019-06-07T03:05:59.465Z,99.99
2019-06-07T03:07:21.730Z,99.99
2019-06-07T03:10:41.649Z,99.99
2019-06-07T03:11:19.120Z,99.99
2019-06-07T03:11:59.578Z,99.99
2019-06-07T03:12:40.172Z,99.99
2019-06-07T03:13:20.758Z,99.99
2019-06-07T03:14:01.248Z,99.99
2019-06-07T03:14:41.816Z,99.99
2019-06-07T03:16:03.554Z,99.99
2019-06-07T03:16:45.906Z,99.99
2019-06-07T03:17:27.031Z,99.99
2019-06-07T03:18:06.857Z,99.99
2019-06-07T03:18:47.329Z,99.99
2019-06-07T03:19:28.741Z,99.99
2019-06-07T03:20:09.015Z,99.99
2019-06-07T03:21:04.475Z,99.99
2019-06-07T03:21:33.745Z,99.99
2019-06-07T03:22:12.763Z,99.99
2019-06-07T03:22:53.201Z,99.99
2019-06-07T03:23:34.409Z,99.99
2019-06-07T03:24:59.560Z,99.99
2019-06-07T03:25:41.679Z,99.99
2019-06-07T03:26:22.171Z,99.99
2019-06-07T03:27:49.739Z,99.99
2019-06-07T03:28:30.117Z,99.99
2019-06-07T03:29:10.086Z,99.99
2019-06-07T03:29:52.135Z,99.99
2019-06-07T03:30:47.891Z,99.99
2019-06-07T03:31:13.661Z,99.99
2019-06-07T03:31:54.171Z,99.99
2019-06-07T03:32:42.771Z,99.99
2019-06-07T03:33:16.959Z,99.99
2019-06-07T03:33:57.438Z,99.99
2019-06-07T03:34:42.841Z,99.99
2019-06-07T03:35:30.678Z,99.99
2019-06-07T03:37:40.077Z,99.99
2019-06-07T03:38:35.182Z,99.99
2019-06-07T03:39:39.485Z,99.99
2019-06-07T03:40:38.433Z,99.99
2019-06-07T03:41:46.029Z,99.99
2019-06-07T03:42:38.721Z,99.99
2019-06-07T03:43:44.254Z,99.99
2019-06-07T03:48:38.773Z,99.99
2019-06-07T03:50:39.482Z,99.99
2019-06-07T03:51:24.954Z,99.99
2019-06-07T03:51:58.342Z,99.99
2019-06-07T03:52:41.252Z,99.99
2019-06-07T03:53:20.904Z,99.99
2019-06-07T03:54:04.109Z,99.99
2019-06-07T03:54:44.581Z,99.99
2019-06-07T03:55:25.112Z,99.99
2019-06-07T03:56:06.405Z,99.99
2019-06-07T03:56:46.095Z,99.99
2019-06-07T03:58:17.649Z,99.99
2019-06-07T03:58:53.479Z,99.99
2019-06-07T03:59:37.345Z,99.99
2019-06-07T04:00:14.888Z,99.33
2019-06-07T04:00:55.385Z,99.24
2019-06-07T04:01:38.413Z,99.14
2019-06-07T04:02:17.705Z,99.62
2019-06-07T04:02:59.860Z,99.14
2019-06-07T04:03:49.072Z,99.52
2019-06-07T04:04:21.146Z,99.52
2019-06-07T04:05:01.750Z,99.99
2019-06-07T04:05:43.772Z,99.62
2019-06-07T04:06:24.186Z,99.62
2019-06-07T04:07:06.055Z,99.71
2019-06-07T04:07:47.708Z,99.71
2019-06-07T04:08:30.713Z,99
2019-06-07T04:09:10.800Z,96.75
2019-06-07T04:09:57.386Z,97.95
2019-06-07T04:11:21.549Z,97.18
2019-06-07T04:12:01.954Z,96.51
2019-06-07T04:12:44.341Z,95.75
2019-06-07T04:13:25.185Z,95.94
2019-06-07T04:14:06.301Z,94.89
2019-06-07T04:14:48.956Z,95.56
2019-06-07T04:16:11.582Z,95.46
2019-06-07T04:16:52.533Z,95.07
2019-06-07T04:17:34.142Z,95.61
2019-06-07T04:18:13.915Z,94.36
2019-06-07T04:19:12.798Z,94.26
2019-06-07T04:19:53.373Z,94.93
2019-06-07T04:20:36.092Z,93.69
2019-06-07T04:21:14.384Z,93.79
2019-06-07T04:21:54.824Z,93.59
2019-06-07T04:22:39.566Z,93.74
2019-06-07T04:23:58.059Z,95.27
2019-06-07T04:24:41.897Z,95.84
2019-06-07T04:25:20.230Z,96.22
2019-06-07T04:26:00.830Z,97.04
2019-06-07T04:26:43.726Z,98.18
2019-06-07T04:27:23.303Z,97.13
2019-06-07T04:28:04.846Z,97.52
2019-06-07T05:08:26.899Z,83.19
2019-06-07T05:08:50.550Z,82.71
2019-06-07T05:09:40.837Z,81.51
2019-06-07T05:10:18.525Z,80.93
2019-06-07T05:11:03.538Z,79.72
2019-06-07T05:11:46.869Z,78.77
2019-06-07T05:12:30.008Z,79.24
2019-06-07T05:13:19.098Z,79.14
2019-06-07T05:13:59.466Z,78.47
2019-06-07T05:14:43.940Z,79.63
2019-06-07T05:15:25.957Z,78.47
2019-06-07T05:16:06.470Z,78
2019-06-07T05:16:46.943Z,77.33
2019-06-07T05:17:31.658Z,76.79
2019-06-07T05:18:11.614Z,75.92
2019-06-07T05:18:54.710Z,75.15
2019-06-07T05:19:39.022Z,74.58
2019-06-07T05:24:48.144Z,73.27
2019-06-07T05:25:31.714Z,72.41
2019-06-07T05:26:16.143Z,73.43
2019-06-07T05:27:02.765Z,74.1
2019-06-07T05:32:21.381Z,76.07
2019-06-07T05:33:02.202Z,76.84
2019-06-07T05:33:44.081Z,76.31
2019-06-07T05:34:25.558Z,76.4
2019-06-07T05:35:08.084Z,75.35
2019-06-07T05:35:48.943Z,73.85
2019-06-07T05:36:31.341Z,73.56
2019-06-07T05:37:12.294Z,71.58
2019-06-07T05:41:57.122Z,70.43
2019-06-07T05:42:41.045Z,69.75
2019-06-07T05:43:19.475Z,71.39
2019-06-07T05:44:12.414Z,71.1
2019-06-07T05:44:45.766Z,71.1
2019-06-07T05:45:28.219Z,71.67
2019-06-07T05:46:15.381Z,70.39
2019-06-07T05:46:57.587Z,71.73
2019-06-07T05:47:44.190Z,72.12
2019-06-07T05:48:21.934Z,72.34
2019-06-07T05:49:04.263Z,71.83
2019-06-07T05:49:47.100Z,72.12
2019-06-07T05:50:41.272Z,72.12
2019-06-07T05:51:12.549Z,72.12
2019-06-07T05:51:54.755Z,71.83
2019-06-07T05:54:09.699Z,70.62
2019-06-07T05:54:50.511Z,70.62
2019-06-07T05:55:31.061Z,70.52
2019-06-07T05:56:14.249Z,70.87
2019-06-07T05:56:54.631Z,71.29
2019-06-07T05:57:41.005Z,70.43
2019-06-07T05:58:20.415Z,70.14
2019-06-07T05:59:00.919Z,70.39
2019-06-07T06:00:21.963Z,72.79
2019-06-07T06:01:41.346Z,71.83
2019-06-07T06:01:55.882Z,72.12
2019-06-07T06:02:26.443Z,71.64
2019-06-07T06:03:07.675Z,72.06
2019-06-07T06:07:50.090Z,69.46
2019-06-07T06:08:27.578Z,70.33
2019-06-07T06:09:13.638Z,70.87
2019-06-07T06:09:52.964Z,72.12
2019-06-07T06:10:37.006Z,73.24
2019-06-07T06:11:15.800Z,74.48
2019-06-07T06:12:02.202Z,74.39
2019-06-07T06:12:43.121Z,75.45
2019-06-07T06:13:20.044Z,74.68
2019-06-07T06:14:07.803Z,75.35
2019-06-07T06:14:44.890Z,75.35
2019-06-07T06:15:42.020Z,75.02
2019-06-07T06:16:08.688Z,76.27
2019-06-07T06:16:50.108Z,76.37
2019-06-07T06:17:30.705Z,76.07
2019-06-07T06:18:11.236Z,75.89
2019-06-07T06:18:51.863Z,75.21
2019-06-07T06:19:33.766Z,75.4
2019-06-07T06:20:15.314Z,76.56
2019-06-07T06:21:17.195Z,76.75
2019-06-07T06:21:40.971Z,76.65
2019-06-07T06:22:21.258Z,75.98
2019-06-07T06:23:01.584Z,76.17
2019-06-07T06:23:45.747Z,76.52
2019-06-07T06:24:24.193Z,78.25
2019-06-07T06:25:33.728Z,79.59
2019-06-07T06:25:53.142Z,79.68
2019-06-07T06:26:27.523Z,79.59
2019-06-07T06:27:28.383Z,79.39
2019-06-07T06:28:09.751Z,79.3
2019-06-07T06:28:30.211Z,79.68
2019-06-07T06:29:10.796Z,79.59
2019-06-07T06:29:52.437Z,79.24
2019-06-07T06:30:33.918Z,78.47
2019-06-07T06:31:14.496Z,76.75
2019-06-07T06:32:40.292Z,76.75
2019-06-07T06:32:46.601Z,75.54
2019-06-07T06:33:31.099Z,75.45
2019-06-07T06:34:03.287Z,75.15
2019-06-07T06:35:28.133Z,74.04
2019-06-07T06:38:49.686Z,70.72
2019-06-07T06:39:31.952Z,70.52
2019-06-07T06:40:13.433Z,71.19
2019-06-07T06:41:12.090Z,71.16
2019-06-07T06:41:49.275Z,71.73
2019-06-07T06:42:17.782Z,71.83
2019-06-07T06:42:58.517Z,72.89
2019-06-07T06:44:19.529Z,72.6
2019-06-07T06:45:02.664Z,72.79
2019-06-07T06:45:46.875Z,73.62
2019-06-07T06:46:37.893Z,73.46
2019-06-07T06:47:04.942Z,74.19
2019-06-07T06:47:47.588Z,74.96
2019-06-07T06:48:26.076Z,75.15
2019-06-07T06:49:54.204Z,75.12
2019-06-07T06:50:34.493Z,75.89
2019-06-07T06:51:18.045Z,75.54
2019-06-07T06:51:59.171Z,76.02
2019-06-07T06:52:43.560Z,75.25
2019-06-07T06:53:20.412Z,74.68
2019-06-07T06:54:01.132Z,74.23
2019-06-07T06:54:46.486Z,74.04
2019-06-07T06:56:04.830Z,71.87
2019-06-07T06:56:46.976Z,72.06
2019-06-07T06:57:25.732Z,71.19
2019-06-07T06:58:11.065Z,70.04
2019-06-07T06:59:39.942Z,71.06
2019-06-07T07:00:18.555Z,71.1
2019-06-07T07:01:06.283Z,70.72
2019-06-07T07:01:39.544Z,70.81
2019-06-07T07:02:20.857Z,71.1
2019-06-07T07:03:42.217Z,70.52
2019-06-07T07:04:04.852Z,70.81
2019-06-07T07:04:28.081Z,70.72
2019-06-07T07:05:10.571Z,71.39
2019-06-07T07:05:55.202Z,71.16
2019-06-07T07:06:35.304Z,71.48
2019-06-07T07:07:15.936Z,71.45
2019-06-07T07:07:56.671Z,72.6
2019-06-07T07:08:47.432Z,73.08
2019-06-07T07:09:27.560Z,73.85
2019-06-07T07:10:08.175Z,74.04
2019-06-07T07:10:52.625Z,72.6
2019-06-07T07:11:29.530Z,72.69
2019-06-07T07:12:14.721Z,72.16
2019-06-07T07:12:53.054Z,71.19
2019-06-07T07:13:37.136Z,70.62
2019-06-07T07:14:23.485Z,71.48
2019-06-07T07:15:06.275Z,71
2019-06-07T07:15:47.988Z,71.29
2019-06-07T07:16:28.813Z,71.29
2019-06-07T07:17:09.528Z,71.29
2019-06-07T07:18:03.394Z,71.67
2019-06-07T07:18:31.358Z,71.1
2019-06-07T07:19:15.723Z,71
2019-06-07T07:19:56.718Z,71.29
2019-06-07T07:20:38.391Z,70.46
2019-06-07T07:21:20.004Z,69.75
2019-06-07T07:22:00.714Z,68.79
2019-06-07T07:34:36.824Z,70.39
2019-06-07T07:35:17.647Z,70.29
2019-06-07T07:36:18.833Z,70.33
2019-06-07T07:40:56.027Z,68.35
2019-06-07T07:41:13.705Z,66.81
2019-06-07T07:42:08.694Z,66.91
2019-06-07T07:42:27.005Z,66.07
2019-06-07T07:43:07.635Z,65.69
2019-06-07T07:43:52.763Z,65.2
2019-06-07T07:45:10.509Z,64.34
2019-06-07T07:50:37.191Z,64.98
2019-06-07T07:51:19.527Z,65.17
2019-06-07T07:52:07.244Z,64.5
2019-06-07T07:52:55.816Z,65.17
2019-06-07T07:53:48.222Z,63.76
2019-06-07T07:54:18.030Z,64.25
2019-06-07T07:55:00.572Z,64.34
2019-06-07T07:55:44.909Z,64.34
2019-06-07T07:56:23.391Z,64.25
2019-06-07T07:57:05.227Z,63.86
2019-06-07T07:57:48.668Z,63.38
2019-06-07T07:58:27.908Z,62.35
2019-06-07T07:59:10.991Z,62.41
2019-06-07T08:00:05.792Z,62.99
2019-06-07T08:00:52.755Z,62.16
2019-06-07T08:01:18.661Z,61.97
2019-06-07T08:02:05.037Z,61.77
2019-06-07T08:02:53.137Z,61.77
2019-06-07T08:03:31.158Z,62.51
2019-06-07T08:04:12.875Z,62.41
2019-06-07T08:06:23.219Z,62.51
2019-06-07T08:07:05.618Z,63.25
2019-06-07T08:07:48.314Z,63.86
2019-06-07T08:09:12.087Z,63.67
2019-06-07T08:09:57.629Z,62.74
2019-06-07T08:10:33.368Z,61.49
2019-06-07T08:11:15.760Z,61.29
2019-06-07T08:12:00.640Z,60.84
2019-06-07T08:12:56.185Z,60.65
2019-06-07T08:13:26.260Z,61.04
2019-06-07T08:14:04.170Z,59.78
2019-06-07T08:15:29.829Z,60.42
2019-06-07T08:16:15.460Z,60.81
2019-06-07T08:16:54.372Z,61.29
2019-06-07T08:17:37.388Z,61.77
2019-06-07T08:18:23.150Z,62.16
2019-06-07T08:19:04.584Z,61.19
2019-06-07T08:19:44.485Z,60.81
2019-06-07T08:21:24.202Z,60.52
2019-06-07T08:22:01.844Z,60.52
2019-06-07T08:22:43.174Z,60.72
2019-06-07T08:24:12.784Z,60.62
2019-06-07T08:24:57.504Z,60.91
2019-06-07T08:25:38.373Z,60.62
2019-06-07T08:26:22.664Z,60.81
2019-06-07T08:27:25.072Z,60.72
2019-06-07T08:27:51.582Z,60.42
2019-06-07T08:28:33.642Z,60.14
2019-06-07T08:29:14.164Z,61
2019-06-07T08:30:15.081Z,61.58
2019-06-07T08:30:48.328Z,62.03
2019-06-07T08:31:19.588Z,61.94
2019-06-07T08:32:03.801Z,61.84
2019-06-07T08:32:45.289Z,62.13
2019-06-07T08:33:26.963Z,62.13
2019-06-07T08:34:09.894Z,61.97
2019-06-07T08:34:53.278Z,61.58
2019-06-07T08:36:11.763Z,61.29
2019-06-07T08:36:21.987Z,61.65
2019-06-07T08:37:01.902Z,62.23
2019-06-07T08:38:46.819Z,62.51
2019-06-07T08:39:15.617Z,62.51
2019-06-07T08:40:01.785Z,62.41
2019-06-07T08:40:42.658Z,62.71
2019-06-07T08:42:15.785Z,63.02
2019-06-07T08:43:05.572Z,63.6
2019-06-07T08:43:39.608Z,63.79
2019-06-07T08:44:23.560Z,62.19
2019-06-07T08:45:05.934Z,61.61
2019-06-07T08:45:51.125Z,61.42
2019-06-07T08:46:31.661Z,60.94
2019-06-07T08:47:20.344Z,61.04
2019-06-07T08:48:40.142Z,61.52
2019-06-07T08:49:23.763Z,61.07
2019-06-07T08:50:07.619Z,60.68
2019-06-07T08:50:51.851Z,59.91
2019-06-07T08:51:32.149Z,59.91
2019-06-07T08:52:13.649Z,58.37
2019-06-07T08:53:04.865Z,58.27
2019-06-07T08:54:02.653Z,58.08
2019-06-07T08:54:34.774Z,58.15
2019-06-07T08:55:15.825Z,58.24
2019-06-07T08:56:09.001Z,59.3
2019-06-07T08:56:52.660Z,59.66
2019-06-07T08:57:32.198Z,59.85
2019-06-07T08:58:14.484Z,59.94
2019-06-07T08:59:10.994Z,60.62
2019-06-07T08:59:48.651Z,60.52
2019-06-07T09:00:48.771Z,60.65
2019-06-07T09:01:15.610Z,61.39
2019-06-07T09:01:59.570Z,61.61
2019-06-07T09:02:43.101Z,61.32
2019-06-07T09:03:26.452Z,60.55
2019-06-07T09:04:10.857Z,60.2
2019-06-07T09:11:11.039Z,58.01
2019-06-07T09:11:49.141Z,58.59
2019-06-07T09:12:32.323Z,57.4
2019-06-07T09:13:15.868Z,58.08
2019-06-07T09:14:02.113Z,58.05
2019-06-07T09:14:58.594Z,59.2
2019-06-07T09:16:04.648Z,59.01
2019-06-07T09:16:43.901Z,59.49
2019-06-07T09:17:27.939Z,59.78
2019-06-07T09:18:50.428Z,60.36
2019-06-07T09:19:33.170Z,60.3
2019-06-07T09:21:36.310Z,58.97
2019-06-07T09:22:19.371Z,58.3
2019-06-07T09:23:06.709Z,58.42
2019-06-07T09:23:42.453Z,58.23
2019-06-07T09:24:22.979Z,58.14
2019-06-07T09:25:11.968Z,58.23
2019-06-07T09:25:57.034Z,58.33
2019-06-07T09:26:27.113Z,58.2
2019-06-07T09:27:09.910Z,57.94
2019-06-07T09:28:28.806Z,57.46
2019-06-07T09:29:11.851Z,57.05
2019-06-07T09:29:53.420Z,57.27
2019-06-07T09:30:37.797Z,56.69
2019-06-07T09:31:18.316Z,56.11
2019-06-07T09:32:05.580Z,56.4
2019-06-07T09:32:43.284Z,55.94
2019-06-07T09:33:27.286Z,56.04
2019-06-07T09:34:13.886Z,56.24
2019-06-07T09:34:49.065Z,56.3
2019-06-07T09:35:33.906Z,55.94
2019-06-07T09:36:15.323Z,56.33
2019-06-07T09:38:04.088Z,55.66
2019-06-07T09:38:25.361Z,55.27
2019-06-07T09:38:59.546Z,55.94
2019-06-07T09:39:39.404Z,55.94
2019-06-07T09:41:03.055Z,55.73
2019-06-07T09:41:50.384Z,56.81
2019-06-07T09:42:29.455Z,56.43
2019-06-07T09:43:59.460Z,56.43
2019-06-07T09:44:02.827Z,55.27
2019-06-07T09:44:34.145Z,55.76
2019-06-07T09:45:16.229Z,56.01
2019-06-07T09:45:58.636Z,55.56
2019-06-07T09:46:37.697Z,55.85
2019-06-07T09:47:30.866Z,55.85
2019-06-07T09:48:02.191Z,56.14
2019-06-07T09:49:31.835Z,55.78
2019-06-07T09:50:11.342Z,54.43
2019-06-07T09:50:46.775Z,54.33
2019-06-07T09:51:28.025Z,55.4
2019-06-07T09:52:10.912Z,54.91
2019-06-07T09:52:58.337Z,55.1
2019-06-07T09:53:29.826Z,54.72
2019-06-07T09:54:56.407Z,55.4
2019-06-07T09:55:35.723Z,55.2
2019-06-07T09:56:18.372Z,55.13
2019-06-07T09:57:02.551Z,54.72
2019-06-07T09:57:39.533Z,54.82
2019-06-07T09:59:03.615Z,55.1
2019-06-07T09:59:43.027Z,55.59
2019-06-07T10:00:42.512Z,55.68
2019-06-07T10:01:13.097Z,55.59
2019-06-07T10:01:49.466Z,55.88
2019-06-07T10:02:31.248Z,54.36
2019-06-07T10:03:19.969Z,54.24
2019-06-07T10:03:52.691Z,54.84
2019-06-07T10:04:33.207Z,54.36
2019-06-07T10:05:14.717Z,54.55
2019-06-07T10:05:55.673Z,55.13
2019-06-07T10:06:37.128Z,54.68
2019-06-07T10:07:31.087Z,54.29
2019-06-07T10:08:10.067Z,54.03
2019-06-07T10:10:38.030Z,53.52
2019-06-07T10:11:19.669Z,52.94
2019-06-07T10:12:00.374Z,53.23
2019-06-07T10:12:41.640Z,53.61
2019-06-07T10:13:25.650Z,53.42
2019-06-07T10:14:06.824Z,53.55
2019-06-07T10:18:28.782Z,52.67
2019-06-07T10:19:10.840Z,52.97
2019-06-07T10:19:53.260Z,52.19
2019-06-07T10:20:36.026Z,51.61
2019-06-07T10:21:18.140Z,51.39
2019-06-07T10:22:03.310Z,52.19
2019-06-07T10:22:47.102Z,52.19
2019-06-07T10:23:29.916Z,51.71
2019-06-07T10:24:10.369Z,51.61
2019-06-07T10:24:50.861Z,52.39
2019-06-07T10:25:31.271Z,52.31
2019-06-07T10:26:13.451Z,51.64
2019-06-07T11:07:16.481Z,48.57
2019-06-07T11:08:03.836Z,49.63
2019-06-07T11:08:45.520Z,50.21
2019-06-07T11:09:27.671Z,50.6
2019-06-07T11:10:15.367Z,50.79
2019-06-07T11:10:56.328Z,50.5
2019-06-07T11:11:38.989Z,50.96
2019-06-07T11:12:19.536Z,51.06
2019-06-07T11:13:01.607Z,50.4
2019-06-07T11:13:42.033Z,50.31
2019-06-07T11:14:23.554Z,50.89
2019-06-07T11:15:44.573Z,50.7
2019-06-07T11:16:25.025Z,49.82
2019-06-07T11:17:07.116Z,50.12
2019-06-07T11:18:26.606Z,48.97
2019-06-07T11:19:08.032Z,49.46
2019-06-07T11:19:48.212Z,50.04
2019-06-07T11:20:29.013Z,49.85
2019-06-07T11:21:10.045Z,49.68
2019-06-07T11:21:51.601Z,48.9
2019-06-07T11:22:35.976Z,48.52
2019-06-07T11:23:16.524Z,48.93
2019-06-07T11:23:57.105Z,47.86
2019-06-07T11:24:37.570Z,46.99
2019-06-07T11:25:18.694Z,46.7
2019-06-07T11:25:58.961Z,46.8
2019-06-07T11:26:40.454Z,46.99
2019-06-07T11:27:21.070Z,47.86
2019-06-07T11:28:01.558Z,48.15
2019-06-07T11:28:42.177Z,47.11
2019-06-07T11:29:22.637Z,46.82
2019-06-07T11:30:03.079Z,46.53
2019-06-07T11:30:45.338Z,46.33
2019-06-07T11:31:25.800Z,46.89
2019-06-07T11:32:08.425Z,47.38
2019-06-07T11:32:48.527Z,47.09
2019-06-07T11:33:29.067Z,46.6
2019-06-07T11:34:10.534Z,46.51
2019-06-07T11:34:53.214Z,47.19
2019-06-07T11:35:33.727Z,46.8
2019-06-07T11:36:15.218Z,46.51
2019-06-07T11:36:54.724Z,46.89
2019-06-07T11:37:35.689Z,46.99
2019-06-07T11:38:16.338Z,47.57
2019-06-07T11:38:56.808Z,47.38
2019-06-07T11:39:39.192Z,46.99
2019-06-07T11:40:34.764Z,47.38
2019-06-07T11:41:01.013Z,47.96
2019-06-07T11:41:41.494Z,47.77
2019-06-07T11:42:21.928Z,48.54
2019-06-07T11:43:02.453Z,48.25
2019-06-07T11:43:42.958Z,48.03
2019-06-07T11:44:23.514Z,47.47
2019-06-07T11:45:05.703Z,47.19
2019-06-07T11:45:45.598Z,47.94
2019-06-07T11:46:26.145Z,49.19
2019-06-07T11:47:08.556Z,48.81
2019-06-07T11:47:50.684Z,49
2019-06-07T11:48:31.348Z,47.06
2019-06-07T11:49:12.908Z,47.36
2019-06-07T11:49:52.213Z,47.28
2019-06-07T11:50:33.340Z,47.19
2019-06-07T11:51:14.877Z,47.11
2019-06-07T11:51:54.592Z,45.73
2019-06-07T11:52:35.522Z,45.83
2019-06-07T11:53:19.927Z,46.72
2019-06-07T11:54:40.500Z,47.02
2019-06-07T11:55:24.907Z,46.92
2019-06-07T11:56:07.969Z,46.07
2019-06-07T11:56:49.367Z,46.16
2019-06-07T11:57:30.923Z,45.51
2019-06-07T11:58:16.217Z,45.02
2019-06-07T11:58:52.261Z,44.54
2019-06-07T11:59:32.960Z,44.17
2019-06-07T12:00:16.062Z,43.59
2019-06-07T12:00:55.290Z,43.71
2019-06-07T12:01:37.321Z,42.25
2019-06-07T12:02:17.566Z,41.59
2019-06-07T12:02:57.562Z,41.49
2019-06-07T12:03:38.081Z,41.78
2019-06-07T12:04:32.266Z,41.77
2019-06-07T12:04:59.404Z,41.57
2019-06-07T12:05:39.876Z,41.67
2019-06-07T12:06:20.718Z,41.28
2019-06-07T12:07:01.201Z,41.1
2019-06-07T12:07:42.637Z,40.52
2019-06-07T12:08:23.101Z,38.87
2019-06-07T12:09:03.845Z,38.27
2019-06-07T12:09:55.741Z,38.85
2019-06-07T12:10:25.103Z,39.34
2019-06-07T12:11:05.564Z,40.79
2019-06-07T12:11:47.014Z,40.62
2019-06-07T12:12:27.375Z,40.5
2019-06-07T12:13:08.319Z,40.6
2019-06-07T12:13:48.442Z,40.41
2019-06-07T12:14:29.000Z,39.72
2019-06-07T12:15:10.492Z,38.75
2019-06-07T12:15:50.029Z,39.14
2019-06-07T12:16:30.562Z,39.92
2019-06-07T12:17:13.308Z,40.31
2019-06-07T12:17:52.365Z,40.79
2019-06-07T12:18:32.865Z,41.06
2019-06-07T12:19:13.789Z,41.86
2019-06-07T12:19:54.435Z,40.5
2019-06-07T12:20:35.200Z,40.11
2019-06-07T12:21:17.974Z,41.38
2019-06-07T12:21:57.012Z,41.57
2019-06-07T12:22:37.475Z,41.67
2019-06-07T12:23:18.140Z,40.6
2019-06-07T12:24:39.899Z,40.79
2019-06-07T12:25:24.724Z,40.41
2019-06-07T12:26:01.008Z,40.62
2019-06-07T12:26:41.474Z,39.06
2019-06-07T12:27:22.400Z,38.96
2019-06-07T12:28:03.362Z,39.75
2019-06-07T12:28:46.335Z,39.55
2019-06-07T12:29:26.894Z,40.62
2019-06-07T12:30:09.936Z,40.62
2019-06-07T12:30:49.885Z,39.82
2019-06-07T12:34:49.474Z,41.92
2019-06-07T12:35:28.955Z,41.82
2019-06-07T12:36:11.409Z,42.5
2019-06-07T12:36:50.843Z,42.5
2019-06-07T12:37:42.928Z,42.79
2019-06-07T12:38:12.269Z,42.89
2019-06-07T12:38:52.390Z,42.6
2019-06-07T12:39:32.860Z,42.52
2019-06-07T12:40:25.752Z,42.91
2019-06-07T12:40:57.773Z,42.33
2019-06-07T12:41:35.852Z,42.99
2019-06-07T12:42:16.657Z,43.08
2019-06-07T12:42:57.184Z,43.27
2019-06-07T12:43:37.594Z,43.66
2019-06-07T12:44:20.721Z,44.64
2019-06-07T12:45:00.334Z,45.39
2019-06-07T12:45:45.129Z,46.07
2019-06-07T12:46:26.676Z,47.03
2019-06-07T12:47:01.956Z,46.94
2019-06-07T12:47:42.447Z,47.13
2019-06-07T12:48:25.859Z,45.48
2019-06-07T12:49:03.476Z,45.39
2019-06-07T12:49:44.134Z,45.58
2019-06-07T12:50:39.465Z,45.75
2019-06-07T12:51:05.461Z,47.2
2019-06-07T12:51:45.955Z,48.85
2019-06-07T12:52:27.296Z,47.79
2019-06-07T12:53:09.495Z,47.4
2019-06-07T12:53:50.035Z,47.3
2019-06-07T12:54:30.895Z,48.44
2019-06-07T12:55:13.622Z,48.44
2019-06-07T12:55:52.758Z,48.83
2019-06-07T12:56:34.222Z,47.67
2019-06-07T12:57:16.205Z,47.28
2019-06-07T12:58:39.418Z,46.99
2019-06-07T12:59:17.922Z,47.67
2019-06-07T12:59:59.223Z,47.67
2019-06-07T13:01:20.826Z,46.7
2019-06-07T13:02:02.365Z,47.19
2019-06-07T13:02:41.161Z,47.09
2019-06-07T13:03:24.505Z,47.77
2019-06-07T13:04:04.347Z,48.44
2019-06-07T13:04:44.944Z,47.96
2019-06-07T13:05:25.245Z,47.96
2019-06-07T13:06:05.864Z,48.44
2019-06-07T13:06:47.204Z,48.42
2019-06-07T13:08:46.731Z,50.16
2019-06-07T13:09:28.012Z,50.35
2019-06-07T13:10:07.176Z,50.65
2019-06-07T13:10:47.801Z,50.74
2019-06-07T13:11:31.521Z,50.77
2019-06-07T13:12:08.851Z,50.38
2019-06-07T13:12:49.403Z,50.38
2019-06-07T13:14:10.388Z,49.73
2019-06-07T13:14:50.901Z,49.92
2019-06-07T13:15:31.953Z,49.24
2019-06-07T13:16:12.565Z,49.44
2019-06-07T13:16:53.936Z,49.24
2019-06-07T13:17:34.555Z,49.34
2019-06-07T13:18:16.826Z,50.21
2019-06-07T13:18:55.541Z,49.24
2019-06-07T13:19:35.969Z,49.24
2019-06-07T13:20:16.555Z,49.82
2019-06-07T13:20:57.825Z,49.24
2019-06-07T13:21:38.291Z,48.59